createdAt,value
2018-12-13T00:00:05.869Z,25.50
2018-12-13T00:02:34.534Z,29.93
2018-12-13T00:05:03.370Z,26.37
2018-12-13T00:07:32.123Z,23.83
2018-12-13T00:10:00.801Z,27.60
2018-12-13T00:12:29.476Z,28.87
2018-12-13T00:14:58.185Z,28.10
2018-12-13T00:17:27.866Z,25.50
2018-12-13T00:19:56.550Z,25.43
2018-12-13T00:22:25.371Z,26.50
2018-12-13T00:24:54.050Z,27.67
2018-12-13T00:27:22.748Z,27.00
2018-12-13T00:29:51.422Z,27.00
2018-12-13T00:32:20.254Z,30.13
2018-12-13T00:34:48.892Z,28.77
2018-12-13T00:37:17.695Z,31.37
2018-12-13T00:39:46.351Z,27.50
2018-12-13T00:42:15.039Z,39.87
2018-12-13T00:44:43.829Z,37.37
2018-12-13T00:47:12.642Z,39.30
2018-12-13T00:49:41.278Z,40.67
2018-12-13T00:52:09.977Z,30.93
2018-12-13T00:54:38.662Z,29.87
2018-12-13T00:57:07.341Z,30.37
2018-12-13T00:59:36.016Z,27.83
2018-12-13T01:02:04.893Z,26.47
2018-12-13T01:04:33.481Z,26.73
2018-12-13T01:07:02.299Z,26.07
2018-12-13T01:09:31.109Z,26.17
2018-12-13T01:11:59.989Z,25.00
2018-12-13T01:14:28.701Z,27.70
2018-12-13T01:16:57.433Z,23.63
2018-12-13T01:19:26.124Z,26.53
2018-12-13T01:21:54.930Z,22.83
2018-12-13T01:24:23.602Z,21.10
2018-12-13T01:26:52.279Z,21.57
2018-12-13T01:29:21.089Z,18.60
2018-12-13T01:31:49.782Z,20.10
2018-12-13T01:34:18.455Z,19.40
2018-12-13T01:36:52.477Z,17.90
2018-12-13T01:39:18.084Z,19.40
2018-12-13T01:41:46.732Z,18.40
2018-12-13T01:44:15.441Z,18.80
2018-12-13T01:46:44.143Z,18.90
2018-12-13T01:49:12.824Z,19.73
2018-12-13T01:51:41.497Z,20.17
2018-12-13T01:54:10.296Z,21.80
2018-12-13T01:56:39.074Z,18.47
2018-12-13T01:59:07.731Z,16.17
2018-12-13T02:01:36.405Z,18.03
2018-12-13T02:04:05.038Z,15.23
2018-12-13T02:06:33.692Z,15.13
2018-12-13T02:09:02.940Z,13.80
2018-12-13T02:11:32.619Z,16.90
2018-12-13T02:14:01.285Z,16.83
2018-12-13T02:16:30.069Z,14.17
2018-12-13T02:18:58.756Z,18.97
2018-12-13T02:21:27.469Z,16.60
2018-12-13T02:23:56.299Z,19.17
2018-12-13T02:26:24.905Z,22.27
2018-12-13T02:28:53.745Z,21.03
2018-12-13T02:31:22.515Z,19.90
2018-12-13T02:33:51.167Z,17.47
2018-12-13T02:36:19.893Z,13.10
2018-12-13T02:38:48.766Z,13.80
2018-12-13T02:41:17.438Z,12.40
2018-12-13T02:43:46.132Z,12.13
2018-12-13T02:46:14.797Z,12.97
2018-12-13T02:48:43.392Z,12.50
2018-12-13T02:51:12.073Z,10.83
2018-12-13T02:53:40.766Z,14.23
2018-12-13T02:56:09.553Z,12.70
2018-12-13T02:58:38.721Z,12.37
2018-12-13T03:01:07.342Z,13.80
2018-12-13T03:03:36.009Z,12.37
2018-12-13T03:06:04.697Z,11.00
2018-12-13T03:08:33.411Z,11.80
2018-12-13T03:11:02.090Z,12.10
2018-12-13T03:13:30.774Z,11.43
2018-12-13T03:15:59.545Z,12.20
2018-12-13T03:18:28.384Z,12.13
2018-12-13T03:20:59.173Z,14.43
2018-12-13T03:23:27.841Z,11.73
2018-12-13T03:25:57.458Z,11.43
2018-12-13T03:28:26.172Z,15.73
2018-12-13T03:30:54.824Z,13.20
2018-12-13T03:33:23.681Z,14.53
2018-12-13T03:35:52.321Z,14.17
2018-12-13T03:38:21.237Z,14.03
2018-12-13T03:40:49.868Z,15.97
2018-12-13T03:43:18.552Z,16.27
2018-12-13T03:45:47.366Z,11.73
2018-12-13T03:48:16.023Z,15.13
2018-12-13T03:50:44.736Z,12.93
2018-12-13T03:53:13.417Z,13.60
2018-12-13T03:55:42.124Z,12.77
2018-12-13T03:58:10.757Z,13.73
2018-12-13T04:00:39.449Z,14.30
2018-12-13T04:03:08.145Z,14.07
2018-12-13T04:05:36.819Z,13.60
2018-12-13T04:08:05.549Z,13.83
2018-12-13T04:10:34.216Z,15.23
2018-12-13T04:13:02.868Z,14.33
2018-12-13T04:15:31.839Z,14.23
2018-12-13T04:18:00.436Z,15.53
2018-12-13T04:20:29.118Z,14.43
2018-12-13T04:22:57.820Z,18.43
2018-12-13T04:25:26.623Z,15.33
2018-12-13T04:27:55.293Z,14.73
2018-12-13T04:30:24.007Z,18.47
2018-12-13T04:32:52.633Z,16.70
2018-12-13T04:35:21.253Z,17.07
2018-12-13T04:37:49.953Z,15.97
2018-12-13T04:40:18.601Z,15.17
2018-12-13T04:42:47.415Z,16.73
2018-12-13T04:45:16.099Z,18.03
2018-12-13T04:47:44.757Z,19.60
2018-12-13T04:50:13.476Z,18.13
2018-12-13T04:52:42.121Z,20.13
2018-12-13T04:55:10.942Z,18.77
2018-12-13T04:57:39.620Z,15.33
2018-12-13T05:00:08.504Z,18.73
2018-12-13T05:02:37.318Z,17.33
2018-12-13T05:05:06.006Z,19.43
2018-12-13T05:07:34.657Z,16.60
2018-12-13T05:10:03.521Z,18.17
2018-12-13T05:12:32.337Z,17.27
2018-12-13T05:15:01.089Z,17.90
2018-12-13T05:17:29.951Z,17.87
2018-12-13T05:19:58.581Z,18.33
2018-12-13T05:22:27.313Z,18.73
2018-12-13T05:24:55.987Z,19.93
2018-12-13T05:27:24.651Z,18.03
2018-12-13T05:29:53.401Z,19.83
2018-12-13T05:32:22.013Z,19.40
2018-12-13T05:34:50.710Z,19.80
2018-12-13T05:37:19.544Z,20.30
2018-12-13T05:39:48.193Z,20.47
2018-12-13T05:42:16.926Z,18.73
2018-12-13T05:44:45.569Z,17.83
2018-12-13T05:47:14.237Z,20.87
2018-12-13T05:49:42.928Z,18.43
2018-12-13T05:52:11.616Z,22.83
2018-12-13T05:54:40.417Z,23.60
2018-12-13T05:57:09.009Z,22.27
2018-12-13T05:59:37.673Z,21.20
2018-12-13T06:02:06.473Z,18.93
2018-12-13T06:04:35.102Z,20.40
2018-12-13T06:07:03.829Z,18.67
2018-12-13T06:09:32.493Z,20.80
2018-12-13T06:12:01.167Z,17.70
2018-12-13T06:14:29.765Z,14.70
2018-12-13T06:16:58.993Z,21.53
2018-12-13T06:19:27.645Z,21.87
2018-12-13T06:21:56.465Z,21.93
2018-12-13T06:24:25.150Z,20.23
2018-12-13T06:26:53.825Z,21.63
2018-12-13T06:29:22.493Z,18.67
2018-12-13T06:31:51.207Z,17.43
2018-12-13T06:34:19.993Z,20.57
2018-12-13T06:36:48.648Z,21.63
2018-12-13T06:39:17.438Z,23.87
2018-12-13T06:41:46.121Z,18.23
2018-12-13T06:44:14.811Z,21.07
2018-12-13T06:46:43.741Z,18.20
2018-12-13T06:49:12.404Z,23.30
2018-12-13T06:51:41.193Z,21.17
2018-12-13T06:54:09.985Z,23.13
2018-12-13T06:56:38.772Z,21.70
2018-12-13T06:59:07.474Z,25.33
2018-12-13T07:01:36.261Z,19.60
2018-12-13T07:04:05.932Z,22.57
2018-12-13T07:06:34.654Z,24.70
2018-12-13T07:09:05.448Z,25.73
2018-12-13T07:11:34.258Z,24.63
2018-12-13T07:14:02.873Z,30.87
2018-12-13T07:16:31.505Z,27.03
2018-12-13T07:19:00.219Z,31.20
2018-12-13T07:21:28.865Z,27.27
2018-12-13T07:23:57.587Z,28.83
2018-12-13T07:26:26.238Z,26.13
2018-12-13T07:28:54.937Z,24.77
2018-12-13T07:31:23.641Z,26.37
2018-12-13T07:33:52.313Z,24.93
2018-12-13T07:36:21.041Z,20.03
2018-12-13T07:38:49.664Z,23.07
2018-12-13T07:41:18.388Z,23.03
2018-12-13T07:43:47.053Z,21.67
2018-12-13T07:46:15.714Z,23.50
2018-12-13T07:48:44.412Z,20.83
2018-12-13T07:51:13.141Z,23.50
2018-12-13T07:53:41.818Z,23.67
2018-12-13T07:56:10.506Z,53.97
2018-12-13T07:58:39.177Z,23.07
2018-12-13T08:01:07.824Z,21.37
2018-12-13T08:03:36.570Z,23.70
2018-12-13T08:06:06.010Z,22.00
2018-12-13T08:08:34.711Z,21.97
2018-12-13T08:11:03.651Z,21.27
2018-12-13T08:13:32.342Z,22.23
2018-12-13T08:16:00.965Z,23.23
2018-12-13T08:18:29.695Z,19.70
2018-12-13T08:20:58.365Z,22.80
2018-12-13T08:23:27.041Z,26.10
2018-12-13T08:25:55.765Z,28.60
2018-12-13T08:28:24.409Z,20.00
2018-12-13T08:30:53.206Z,20.93
2018-12-13T08:33:21.895Z,20.37
2018-12-13T08:35:50.661Z,17.17
2018-12-13T08:38:19.345Z,14.57
2018-12-13T08:40:48.134Z,17.47
2018-12-13T08:43:16.859Z,13.43
2018-12-13T08:45:45.526Z,14.40
2018-12-13T08:48:14.205Z,13.33
2018-12-13T08:50:42.889Z,18.13
2018-12-13T08:53:11.725Z,15.00
2018-12-13T08:55:40.349Z,18.23
2018-12-13T08:58:09.154Z,17.33
2018-12-13T09:00:37.856Z,14.50
2018-12-13T09:03:06.528Z,13.50
2018-12-13T09:05:35.220Z,14.97
2018-12-13T09:08:03.865Z,14.77
2018-12-13T09:10:32.767Z,14.20
2018-12-13T09:13:01.597Z,17.73
2018-12-13T09:15:30.228Z,15.63
2018-12-13T09:17:58.936Z,15.87
2018-12-13T09:20:27.642Z,16.17
2018-12-13T09:22:56.306Z,16.07
2018-12-13T09:25:24.954Z,14.07
2018-12-13T09:27:53.772Z,14.07
2018-12-13T09:30:22.447Z,13.30
2018-12-13T09:32:51.252Z,16.33
2018-12-13T09:35:20.029Z,13.83
2018-12-13T09:37:48.719Z,13.17
2018-12-13T09:40:17.399Z,13.60
2018-12-13T09:42:46.062Z,10.27
2018-12-13T09:45:14.899Z,10.70
2018-12-13T09:47:43.543Z,18.03
2018-12-13T09:50:12.236Z,13.70
2018-12-13T09:52:41.974Z,11.60
2018-12-13T09:55:10.660Z,15.27
2018-12-13T09:57:39.351Z,14.40
2018-12-13T10:00:10.025Z,12.23
2018-12-13T10:02:38.851Z,12.23
2018-12-13T10:05:07.645Z,14.43
2018-12-13T10:07:36.377Z,15.27
2018-12-13T10:10:05.878Z,18.57
2018-12-13T10:12:34.616Z,13.90
2018-12-13T10:15:03.354Z,12.07
2018-12-13T10:17:31.961Z,18.10
2018-12-13T10:20:00.634Z,12.83
2018-12-13T10:22:29.335Z,17.80
2018-12-13T10:24:58.145Z,18.87
2018-12-13T10:27:26.785Z,18.70
2018-12-13T10:29:55.379Z,16.17
2018-12-13T10:32:24.321Z,16.67
2018-12-13T10:34:52.984Z,11.27
2018-12-13T10:37:21.793Z,16.87
2018-12-13T10:39:50.425Z,16.57
2018-12-13T10:42:19.114Z,22.87
2018-12-13T10:44:47.801Z,17.57
2018-12-13T10:47:16.505Z,11.87
2018-12-13T10:49:45.183Z,15.30
2018-12-13T10:52:13.890Z,19.20
2018-12-13T10:54:42.569Z,15.27
2018-12-13T10:57:11.215Z,12.13
2018-12-13T10:59:39.951Z,18.77
2018-12-13T11:02:13.851Z,17.40
2018-12-13T11:04:42.618Z,14.90
2018-12-13T11:07:11.413Z,18.73
2018-12-13T11:09:40.202Z,10.87
2018-12-13T11:12:08.858Z,12.47
2018-12-13T11:14:37.637Z,17.90
2018-12-13T11:17:06.415Z,12.23
2018-12-13T11:19:35.025Z,13.73
2018-12-13T11:22:03.739Z,14.30
2018-12-13T11:24:32.377Z,14.77
2018-12-13T11:27:12.225Z,15.17
2018-12-13T11:29:52.139Z,13.63
2018-12-13T11:32:20.855Z,14.83
2018-12-13T11:34:49.685Z,20.57
2018-12-13T11:37:18.348Z,18.30
2018-12-13T11:39:47.092Z,19.53
2018-12-13T11:42:15.858Z,16.17
2018-12-13T11:44:44.501Z,17.80
2018-12-13T11:47:13.267Z,13.40
2018-12-13T11:49:41.900Z,15.10
2018-12-13T11:52:10.584Z,15.67
2018-12-13T11:54:44.125Z,22.73
2018-12-13T11:57:12.881Z,18.73
2018-12-13T11:59:41.552Z,15.67
2018-12-13T12:02:10.230Z,14.93
2018-12-13T12:04:39.020Z,16.90
2018-12-13T12:07:07.786Z,20.50
2018-12-13T12:09:37.596Z,14.13
2018-12-13T12:12:06.369Z,12.93
2018-12-13T12:14:35.016Z,16.20
2018-12-13T12:17:03.846Z,18.70
2018-12-13T12:19:32.618Z,21.33
2018-12-13T12:22:01.280Z,14.70
2018-12-13T12:24:30.091Z,16.03
2018-12-13T12:26:58.818Z,14.47
2018-12-13T12:29:27.514Z,16.93
2018-12-13T12:31:56.213Z,16.57
2018-12-13T12:34:24.853Z,19.03
2018-12-13T12:36:53.676Z,13.80
2018-12-13T12:39:22.451Z,17.10
2018-12-13T12:41:51.146Z,16.67
2018-12-13T12:44:19.809Z,15.70
2018-12-13T12:46:48.649Z,17.60
2018-12-13T12:49:17.296Z,19.47
2018-12-13T12:51:45.962Z,22.27
2018-12-13T12:54:14.659Z,20.03
2018-12-13T12:56:43.326Z,21.67
2018-12-13T12:59:12.038Z,15.60
2018-12-13T13:01:40.881Z,17.70
2018-12-13T13:04:09.515Z,18.93
2018-12-13T13:06:38.222Z,18.97
2018-12-13T13:09:08.689Z,17.67
2018-12-13T13:11:37.515Z,18.70
2018-12-13T13:14:06.303Z,22.00
2018-12-13T13:16:34.899Z,21.67
2018-12-13T13:19:03.536Z,18.57
2018-12-13T13:21:32.262Z,15.93
2018-12-13T13:24:00.900Z,18.77
2018-12-13T13:26:29.608Z,21.63
2018-12-13T13:28:58.272Z,24.33
2018-12-13T13:31:27.008Z,23.93
2018-12-13T13:33:56.053Z,25.63
2018-12-13T13:36:24.715Z,21.13
2018-12-13T13:38:54.620Z,21.00
2018-12-13T13:41:23.463Z,20.87
2018-12-13T13:43:52.313Z,16.80
2018-12-13T13:46:20.921Z,20.03
2018-12-13T13:48:49.838Z,26.60
2018-12-13T13:51:18.674Z,17.47
2018-12-13T13:53:47.269Z,21.57
2018-12-13T13:56:15.992Z,24.53
2018-12-13T13:58:44.787Z,27.37
2018-12-13T14:01:13.437Z,25.90
2018-12-13T14:03:42.133Z,22.77
2018-12-13T14:06:10.946Z,22.73
2018-12-13T14:08:39.731Z,20.43
2018-12-13T14:11:08.436Z,28.43
2018-12-13T14:13:37.102Z,23.87
2018-12-13T14:16:05.709Z,24.70
2018-12-13T14:18:34.348Z,24.57
2018-12-13T14:21:03.052Z,29.77
2018-12-13T14:23:31.777Z,20.53
2018-12-13T14:26:00.389Z,23.20
2018-12-13T14:28:29.119Z,21.33
2018-12-13T14:30:57.893Z,23.67
2018-12-13T14:33:26.541Z,22.70
2018-12-13T14:35:55.467Z,22.33
2018-12-13T14:38:24.301Z,24.20
2018-12-13T14:40:52.909Z,23.83
2018-12-13T14:43:21.610Z,23.70
2018-12-13T14:45:50.277Z,25.40
2018-12-13T14:48:18.990Z,25.57
2018-12-13T14:50:47.714Z,23.53
2018-12-13T14:53:16.859Z,34.13
2018-12-13T14:55:45.559Z,38.53
2018-12-13T14:58:14.353Z,36.27
2018-12-13T15:00:43.021Z,30.17
2018-12-13T15:03:11.766Z,33.87
2018-12-13T15:05:40.474Z,39.30
2018-12-13T15:08:09.378Z,52.60
2018-12-13T15:10:39.108Z,54.67
2018-12-13T15:13:07.883Z,44.10
2018-12-13T15:15:36.725Z,45.20
2018-12-13T15:18:05.585Z,38.83
2018-12-13T15:20:34.256Z,30.00
2018-12-13T15:23:03.165Z,26.53
2018-12-13T15:25:31.855Z,40.97
2018-12-13T15:28:00.505Z,26.10
2018-12-13T15:30:29.245Z,39.47
2018-12-13T15:32:57.890Z,32.20
2018-12-13T15:35:26.766Z,29.13
2018-12-13T15:37:55.486Z,34.60
2018-12-13T15:40:24.252Z,29.70
2018-12-13T15:42:52.902Z,31.27
2018-12-13T15:45:22.225Z,25.10
2018-12-13T15:47:51.128Z,23.30
2018-12-13T15:50:19.802Z,23.33
2018-12-13T15:52:48.495Z,21.20
2018-12-13T15:55:17.180Z,20.10
2018-12-13T15:57:46.088Z,24.17
2018-12-13T16:00:14.745Z,30.43
2018-12-13T16:02:43.642Z,32.00
2018-12-13T16:05:12.513Z,37.70
2018-12-13T16:07:41.266Z,35.93
2018-12-13T16:10:10.150Z,40.97
2018-12-13T16:12:38.784Z,46.90
2018-12-13T16:15:07.801Z,49.87
2018-12-13T16:17:36.409Z,52.40
2018-12-13T16:20:05.925Z,46.37
2018-12-13T16:22:34.685Z,31.93
2018-12-13T16:25:03.427Z,32.37
2018-12-13T16:27:32.222Z,36.30
2018-12-13T16:30:01.122Z,37.50
2018-12-13T16:32:29.896Z,39.00
2018-12-13T16:34:58.574Z,47.80
2018-12-13T16:37:27.301Z,87.90
2018-12-13T16:39:55.981Z,63.30
2018-12-13T16:42:24.609Z,58.67
2018-12-13T16:44:55.292Z,63.70
2018-12-13T16:47:24.079Z,77.30
2018-12-13T16:49:52.751Z,74.17
2018-12-13T16:52:21.447Z,82.83
2018-12-13T16:54:50.122Z,94.37
2018-12-13T16:57:18.817Z,80.63
2018-12-13T16:59:47.686Z,46.07
2018-12-13T17:02:16.382Z,54.93
2018-12-13T17:04:45.077Z,85.73
2018-12-13T17:07:13.798Z,83.53
2018-12-13T17:09:42.588Z,94.63
2018-12-13T17:12:11.350Z,74.10
2018-12-13T17:14:39.993Z,62.03
2018-12-13T17:17:08.734Z,51.43
2018-12-13T17:19:37.387Z,45.50
2018-12-13T17:22:06.068Z,56.67
2018-12-13T17:24:34.946Z,60.63
2018-12-13T17:27:03.653Z,57.10
2018-12-13T17:29:32.317Z,36.87
2018-12-13T17:32:01.115Z,34.73
2018-12-13T17:34:29.902Z,38.63
2018-12-13T17:36:58.580Z,31.53
2018-12-13T17:39:27.245Z,36.57
2018-12-13T17:41:55.947Z,42.27
2018-12-13T17:44:24.644Z,42.17
2018-12-13T17:46:53.401Z,43.07
2018-12-13T17:49:22.123Z,41.60
2018-12-13T17:51:50.831Z,42.97
2018-12-13T17:54:19.501Z,50.80
2018-12-13T17:56:49.450Z,53.77
2018-12-13T17:59:18.399Z,45.73
2018-12-13T18:01:47.166Z,42.83
2018-12-13T18:04:15.880Z,35.80
2018-12-13T18:06:44.548Z,32.10
2018-12-13T18:09:13.209Z,37.87
2018-12-13T18:11:41.926Z,41.50
2018-12-13T18:14:10.731Z,36.90
2018-12-13T18:16:43.359Z,41.10
2018-12-13T18:19:10.227Z,30.50
2018-12-13T18:21:39.694Z,32.90
2018-12-13T18:24:08.464Z,32.03
2018-12-13T18:26:37.265Z,37.07
2018-12-13T18:29:05.892Z,37.27
2018-12-13T18:31:34.626Z,45.67
2018-12-13T18:34:03.278Z,48.13
2018-12-13T18:36:32.220Z,48.80
2018-12-13T18:39:01.026Z,46.97
2018-12-13T18:41:29.749Z,49.07
2018-12-13T18:43:58.376Z,45.93
2018-12-13T18:46:27.113Z,53.90
2018-12-13T18:48:55.838Z,44.57
2018-12-13T18:51:24.445Z,51.97
2018-12-13T18:53:53.237Z,49.93
2018-12-13T18:56:22.137Z,59.50
2018-12-13T18:58:50.790Z,50.83
2018-12-13T19:01:19.625Z,46.37
2018-12-13T19:03:48.267Z,46.30
2018-12-13T19:06:16.982Z,48.03
2018-12-13T19:08:45.645Z,59.30
2018-12-13T19:11:14.377Z,54.70
2018-12-13T19:13:43.050Z,53.27
2018-12-13T19:16:11.825Z,43.57
2018-12-13T19:18:40.421Z,36.97
2018-12-13T19:21:09.111Z,34.80
2018-12-13T19:23:37.775Z,34.20
2018-12-13T19:26:06.586Z,34.97
2018-12-13T19:28:35.350Z,32.43
2018-12-13T19:31:04.006Z,32.90
2018-12-13T19:33:32.821Z,46.20
2018-12-13T19:36:01.686Z,41.23
2018-12-13T19:38:30.546Z,43.50
2018-12-13T19:40:59.178Z,41.47
2018-12-13T19:43:27.919Z,35.57
2018-12-13T19:45:56.564Z,29.93
2018-12-13T19:48:25.342Z,31.90
2018-12-13T19:50:54.226Z,33.13
2018-12-13T19:53:23.518Z,31.87
2018-12-13T19:55:52.253Z,31.57
2018-12-13T19:58:20.912Z,30.60
2018-12-13T20:00:49.583Z,29.13
2018-12-13T20:03:18.236Z,29.70
2018-12-13T20:05:46.949Z,28.63
2018-12-13T20:08:15.743Z,25.13
2018-12-13T20:10:44.446Z,26.70
2018-12-13T20:13:14.115Z,28.30
2018-12-13T20:15:43.382Z,26.83
2018-12-13T20:18:11.991Z,26.63
2018-12-13T20:20:40.868Z,31.30
2018-12-13T20:23:09.688Z,29.97
2018-12-13T20:25:38.427Z,28.53
2018-12-13T20:28:07.166Z,31.53
2018-12-13T20:30:35.882Z,32.17
2018-12-13T20:33:04.743Z,33.30
2018-12-13T20:35:33.546Z,34.27
2018-12-13T20:38:02.419Z,31.37
2018-12-13T20:40:31.201Z,27.33
2018-12-13T20:42:59.942Z,31.03
2018-12-13T20:45:28.676Z,31.73
2018-12-13T20:47:57.570Z,35.10
2018-12-13T20:50:26.250Z,39.67
2018-12-13T20:52:54.977Z,30.37
2018-12-13T20:55:25.852Z,40.20
2018-12-13T20:57:54.558Z,49.80
2018-12-13T21:00:23.580Z,30.23
2018-12-13T21:02:52.241Z,31.00
2018-12-13T21:05:21.069Z,46.73
2018-12-13T21:07:49.714Z,43.53
2018-12-13T21:10:19.004Z,29.97
2018-12-13T21:12:47.713Z,35.37
2018-12-13T21:15:16.371Z,33.87
2018-12-13T21:17:45.087Z,35.97
2018-12-13T21:20:13.790Z,31.47
2018-12-13T21:22:42.555Z,29.90
2018-12-13T21:25:11.295Z,27.23
2018-12-13T21:27:40.047Z,33.50
2018-12-13T21:30:08.926Z,31.83
2018-12-13T21:32:37.584Z,27.70
2018-12-13T21:35:07.143Z,38.20
2018-12-13T21:37:35.889Z,34.70
2018-12-13T21:40:05.241Z,38.87
2018-12-13T21:42:33.975Z,36.53
2018-12-13T21:45:02.845Z,35.57
2018-12-13T21:47:31.627Z,32.13
2018-12-13T21:50:00.622Z,32.67
2018-12-13T21:52:29.353Z,38.37
2018-12-13T21:54:58.081Z,39.43
2018-12-13T21:57:27.084Z,41.93
2018-12-13T21:59:56.002Z,39.57
2018-12-13T22:02:24.728Z,43.80
2018-12-13T22:04:53.381Z,44.70
2018-12-13T22:07:22.146Z,32.03
2018-12-13T22:09:51.036Z,42.67
2018-12-13T22:12:19.928Z,33.77
2018-12-13T22:14:48.740Z,81.37
2018-12-13T22:17:17.370Z,101.77
2018-12-13T22:19:46.113Z,86.57
2018-12-13T22:22:14.794Z,115.63
2018-12-13T22:24:43.429Z,91.23
2018-12-13T22:27:12.138Z,63.80
2018-12-13T22:29:41.000Z,85.57
2018-12-13T22:32:09.933Z,65.43
2018-12-13T22:34:38.709Z,51.90
2018-12-13T22:37:07.888Z,34.00
2018-12-13T22:39:36.550Z,37.87
2018-12-13T22:42:05.361Z,35.33
2018-12-13T22:44:34.046Z,34.47
2018-12-13T22:47:02.742Z,27.87
2018-12-13T22:49:31.425Z,27.57
2018-12-13T22:52:00.120Z,28.80
2018-12-13T22:54:28.806Z,31.37
2018-12-13T22:56:57.457Z,29.20
2018-12-13T22:59:26.271Z,28.80
2018-12-13T23:01:54.974Z,32.27
2018-12-13T23:04:23.668Z,33.07
2018-12-13T23:06:52.323Z,33.93
2018-12-13T23:09:21.117Z,34.80
2018-12-13T23:11:49.822Z,34.67
2018-12-13T23:14:18.444Z,33.63
2018-12-13T23:16:47.169Z,34.47
2018-12-13T23:19:15.770Z,37.23
2018-12-13T23:21:44.449Z,41.07
2018-12-13T23:24:13.243Z,41.20
2018-12-13T23:26:42.038Z,44.03
2018-12-13T23:29:10.663Z,38.07
2018-12-13T23:31:39.397Z,36.23
2018-12-13T23:34:08.065Z,42.17
2018-12-13T23:36:36.725Z,40.97
2018-12-13T23:39:06.200Z,43.40
2018-12-13T23:41:39.108Z,39.73
2018-12-13T23:44:05.510Z,41.57
2018-12-13T23:46:34.128Z,42.67
2018-12-13T23:49:02.826Z,42.77
2018-12-13T23:51:31.523Z,50.10
2018-12-13T23:54:00.225Z,42.53
2018-12-13T23:56:29.009Z,45.20
2018-12-13T23:58:57.997Z,43.67
